SKUC/AUC METAR and TAF weather

Enter ICAO airport designator
Station Type Date Time Source
SKUC METAR 2020/07/13 21:00 UTC NOAA

SKUC 132100Z VRB02KT 9999 BKN015 SCT070 23/23 A2989 REDZ


Station Type Date Time Source
SKUC Decoded METAR 2020/07/13 21:00 UTC NOAA

Arauca / Santiago Perez, Colombia (SKUC) 07-04N 070-44W 128M
Jul 13, 2020 - 05:00 PM EDT / 2020.07.13 2100 UTC
Wind: Variable at 2 MPH (2 KT):0
Visibility: greater than 7 mile(s):0
Sky conditions: mostly cloudy
Temperature: 73 F (23 C)
Dew Point: 73 F (23 C)
Relative Humidity: 100%
Pressure (altimeter): 29.89 in. Hg (1012 hPa)
ob: SKUC 132100Z VRB02KT 9999 BKN015 SCT070 23/23 A2989 REDZ
cycle: 21

Station Type Date Time Source
SKUC TAF UTC NOAA

Error!

Example: see airport list